Crystal Symphony — C6MY5 — position and weather

sailwx.info

Track history (hours):
 
Tides and Currents Weather Stations Pressure Air Temp Water Temp Dewpoint Dewpoint Depression Visibility Wind Speed Wind Dir Waves Ship Positions

Crystal Symphony

Operator: Crystal Cruises

Last reported at 2019-Jun-16 02:17 UTC. Time now 2019-Jun-16 15:32 UTC.
Position N 43°05' W 125°02'.

Length 238 m; draft 8 m.

Type: Ship. MMSI: 309168000.

Date/timePositionNaut miles runAvg speedWind from/ knotsBaromVisibWave heightAir tempDewpointWater temp
2019-Jun-16 02:17N 43°05' W 125°02'1219.9
2019-Jun-16 01:41N 43°17' W 125°01'319.8
2019-Jun-16 01:30N 43°20' W 125°01'1220.2
2019-Jun-16 00:55N 43°32' W 125°01'819.9
2019-Jun-16 00:30N 43°40' W 125°01'1020.0
2019-Jun-16 00:00N 43°50' W 125°00'1019.5
2019-Jun-15 23:30N 43°60' W 125°00'1719.4
2019-Jun-15 22:37N 44°17' W 125°01'219.7
2019-Jun-15 22:30N 44°19' W 125°01'1019.8
2019-Jun-15 22:01N 44°29' W 125°02'1020.1
2019-Jun-15 21:30N 44°39' W 125°03'1219.4
2019-Jun-15 20:54N 44°51' W 125°04'819.4
2019-Jun-15 20:30N 44°59' W 125°05'1019.4
2019-Jun-15 20:00N 45°08' W 125°05'1019.3
2019-Jun-15 19:30N 45°18' W 125°06'1619.3
2019-Jun-15 18:42N 45°34' W 125°08'419.5
2019-Jun-15 18:30N 45°37' W 125°08'1631.0
2019-Jun-15 18:00N 45°53' W 125°09'912.1
2019-Jun-15 17:17N 46°01' W 125°10'517.3
2019-Jun-15 17:00N 46°06' W 125°11'1019.3
2019-Jun-15 16:30N 46°16' W 125°12'1719.5
2019-Jun-15 15:38N 46°33' W 125°13'219.3
2019-Jun-15 15:30N 46°35' W 125°13'1019.3
2019-Jun-15 15:00N 46°45' W 125°13'919.2
2019-Jun-15 14:30N 46°55' W 125°14'1019.7
2019-Jun-15 13:59N 47°05' W 125°15'1419.7
2019-Jun-15 13:15N 47°19' W 125°15'819.4
2019-Jun-15 12:52N 47°27' W 125°18'1219.8
2019-Jun-15 12:14N 47°39' W 125°19'819.8
2019-Jun-15 11:50N 47°47' W 125°20'619.3
2019-Jun-15 11:30N 47°53' W 125°20'1319.6
2019-Jun-15 10:49N 48°06' W 125°15'719.8
2019-Jun-15 10:29N 48°13' W 125°12'919.4
2019-Jun-15 10:00N 48°22' W 125°09'1018.5
2019-Jun-15 09:29N 48°30' W 125°01'919.0
2019-Jun-15 09:00N 48°31' W 124°48'1019.6
2019-Jun-15 08:30N 48°28' W 124°34'1019.2
2019-Jun-15 08:00N 48°24' W 124°20'1018.8
2019-Jun-15 07:30N 48°21' W 124°07'2517.7
2019-Jun-15 06:04N 48°18' W 123°29'219.0
2019-Jun-15 05:57N 48°20' W 123°27'511.3
2019-Jun-15 05:31N 48°23' W 123°22'4 8.7
2019-Jun-15 05:01N 48°24' W 123°15'918.1
2019-Jun-15 04:30N 48°33' W 123°13'919.0
2019-Jun-15 04:01N 48°42' W 123°15'1018.4
2019-Jun-15 03:26N 48°47' W 123°01'715.2
2019-Jun-15 03:01N 48°53' W 123°06'1020.1
2019-Jun-15 02:31N 48°59' W 123°18'1019.2
2019-Jun-15 02:01N 49°08' W 123°23'1019.1
2019-Jun-15 01:30N 49°17' W 123°19'714.9
2019-Jun-15 01:00N 49°19' W 123°08'2 3.4
2019-Jun-15 00:28N 49°17' W 123°07'0 0.0
2019-Jun-15 00:00N 49°17' W 123°07'0 0.0
2019-Jun-14 23:30N 49°17' W 123°07'0 0.0
2019-Jun-14 23:00N 49°17' W 123°07'0 0.0
2019-Jun-14 22:30N 49°17' W 123°07'0 0.0
2019-Jun-14 22:01N 49°17' W 123°07'0 0.0
2019-Jun-14 21:30N 49°17' W 123°07'0 0.0
2019-Jun-14 21:00N 49°17' W 123°07'0 0.0
2019-Jun-14 20:29N 49°17' W 123°07'0 0.0
2019-Jun-14 20:01N 49°17' W 123°07'0 0.0
2019-Jun-14 19:30N 49°17' W 123°07'0 0.0
2019-Jun-14 19:00N 49°17' W 123°07'0 0.0
2019-Jun-14 18:31N 49°17' W 123°07'0 0.0
2019-Jun-14 18:00N 49°17' W 123°07'0 0.0
2019-Jun-14 17:31N 49°17' W 123°07'0 0.0
2019-Jun-14 16:58N 49°17' W 123°07'0 0.0
2019-Jun-14 16:31N 49°17' W 123°07'0 0.0
2019-Jun-14 15:59N 49°17' W 123°07'0 0.0
2019-Jun-14 15:30N 49°17' W 123°07'0 0.0
2019-Jun-14 15:00N 49°17' W 123°07'0 0.0
2019-Jun-14 14:29N 49°17' W 123°07'0 0.3
2019-Jun-14 14:00N 49°18' W 123°07'1 2.9
2019-Jun-14 13:30N 49°19' W 123°08'5 9.4
2019-Jun-14 13:01N 49°18' W 123°15'5 9.1
2019-Jun-14 12:30N 49°15' W 123°19'612.2
2019-Jun-14 12:00N 49°09' W 123°21'510.5
2019-Jun-14 11:30N 49°03' W 123°19'612.1
2019-Jun-14 11:01N 48°59' W 123°13'612.3
2019-Jun-14 10:31N 48°55' W 123°06'612.2
2019-Jun-14 10:01N 48°50' W 123°01'610.7
2019-Jun-14 09:29N 48°45' W 123°04'714.0
2019-Jun-14 09:00N 48°42' W 123°14'713.7
2019-Jun-14 08:30N 48°35' W 123°13'715.1
2019-Jun-14 08:00N 48°28' W 123°10'612.3
2019-Jun-14 07:30N 48°23' W 123°15'611.2
2019-Jun-14 07:00N 48°24' W 123°24'1 2.4
2019-Jun-14 06:29N 48°25' W 123°23'0 0.0
2019-Jun-14 05:59N 48°25' W 123°23'0 0.0
2019-Jun-14 05:29N 48°25' W 123°23'0 0.0
2019-Jun-14 04:58N 48°25' W 123°23'0 0.0
2019-Jun-14 04:28N 48°25' W 123°23'0 0.0
2019-Jun-14 03:58N 48°25' W 123°23'0 0.0
2019-Jun-14 03:28N 48°25' W 123°23'0 0.0
2019-Jun-14 02:58N 48°25' W 123°23'0 0.0
2019-Jun-14 02:30N 48°25' W 123°23'0 0.0
2019-Jun-14 02:00N 48°25' W 123°23'0 0.0
2019-Jun-14 01:30N 48°25' W 123°23'0 0.0
2019-Jun-14 01:00N 48°25' W 123°23'0 0.0
2019-Jun-14 00:29N 48°25' W 123°23'0 0.0
2019-Jun-13 23:59N 48°25' W 123°23'0 0.0
2019-Jun-13 23:29N 48°25' W 123°23'0 0.0
2019-Jun-13 22:59N 48°25' W 123°23'0 0.0
2019-Jun-13 22:29N 48°25' W 123°23'0 0.0
2019-Jun-13 21:58N 48°25' W 123°23'0 0.0
2019-Jun-13 21:28N 48°25' W 123°23'0 0.0
2019-Jun-13 20:58N 48°25' W 123°23'0 0.0
2019-Jun-13 20:28N 48°25' W 123°23'0 0.0
2019-Jun-13 19:58N 48°25' W 123°23'0 0.0
2019-Jun-13 19:30N 48°25' W 123°23'0 0.0
2019-Jun-13 19:00N 48°25' W 123°23'0 0.0
2019-Jun-13 18:30N 48°25' W 123°23'0 0.0
2019-Jun-13 18:00N 48°25' W 123°23'0 0.0
2019-Jun-13 17:29N 48°25' W 123°23'0 0.0
2019-Jun-13 16:59N 48°25' W 123°23'0 0.0
2019-Jun-13 16:29N 48°25' W 123°23'0 0.0
2019-Jun-13 15:59N 48°25' W 123°23'0 0.0
2019-Jun-13 15:29N 48°25' W 123°23'0 0.0
2019-Jun-13 14:58N 48°25' W 123°23'0 0.4
2019-Jun-13 14:30N 48°25' W 123°24'3 5.0
2019-Jun-13 14:00N 48°22' W 123°23'611.5
2019-Jun-13 13:30N 48°17' W 123°26'611.2
2019-Jun-13 12:59N 48°14' W 123°33'1011.5
2019-Jun-13 12:06N 48°14' W 123°48'211.5
2019-Jun-13 11:56N 48°14' W 123°51'511.3
2019-Jun-13 11:28N 48°15' W 123°59'611.8
2019-Jun-13 11:00N 48°17' W 124°06'611.6
2019-Jun-13 10:30N 48°19' W 124°14'611.8
2019-Jun-13 10:00N 48°22' W 124°22'714.4
2019-Jun-13 09:30N 48°24' W 124°32'815.9
2019-Jun-13 09:00N 48°28' W 124°43'815.3
2019-Jun-13 08:30N 48°28' W 124°55'816.1
2019-Jun-13 08:00N 48°28' W 125°07'917.1
2019-Jun-13 07:30N 48°32' W 125°19'917.2
2019-Jun-13 07:00N 48°35' W 125°31'917.4
2019-Jun-13 06:30N 48°38' W 125°43'816.9
2019-Jun-13 06:01N 48°44' W 125°53'917.1
2019-Jun-13 05:30N 48°48' W 126°04'917.3
2019-Jun-13 05:01N 48°53' W 126°14'917.5
2019-Jun-13 04:29N 48°59' W 126°25'1417.3
2019-Jun-13 03:39N 49°08' W 126°42'317.7
2019-Jun-13 03:29N 49°10' W 126°46'917.1
2019-Jun-13 02:56N 49°17' W 126°55'6117.5
2019-Jun-12 23:28N 49°58' W 128°04'1217.7
2019-Jun-12 22:46N 50°06' W 128°19'417.3
2019-Jun-12 22:31N 50°09' W 128°24'917.0
2019-Jun-12 22:00N 50°14' W 128°34'917.3
2019-Jun-12 21:30N 50°20' W 128°45'917.3
2019-Jun-12 21:00N 50°26' W 128°55'917.5
2019-Jun-12 20:31N 50°31' W 129°06'917.5
2019-Jun-12 20:00N 50°37' W 129°16'917.5
2019-Jun-12 19:30N 50°42' W 129°27'917.3
2019-Jun-12 19:01N 50°50' W 129°32'917.4
2019-Jun-12 18:30N 50°59' W 129°37'917.3
2019-Jun-12 18:00N 51°07' W 129°41'917.2
2019-Jun-12 17:30N 51°15' W 129°46'917.3
2019-Jun-12 17:00N 51°23' W 129°50'917.4
2019-Jun-12 16:30N 51°31' W 129°55'917.2
2019-Jun-12 16:01N 51°39' W 129°60'816.8
2019-Jun-12 15:31N 51°47' W 130°04'917.0
2019-Jun-12 15:00N 51°55' W 130°09'816.9
2019-Jun-12 14:30N 52°03' W 130°14'916.5
2019-Jun-12 13:59N 52°11' W 130°18'1116.8
2019-Jun-12 13:20N 52°22' W 130°24'917.1
2019-Jun-12 12:49N 52°30' W 130°29'516.9
2019-Jun-12 12:30N 52°35' W 130°32'1317.3
2019-Jun-12 11:47N 52°47' W 130°39'517.5
2019-Jun-12 11:28N 52°52' W 130°42'817.3
2019-Jun-12 11:00N 52°59' W 130°47'1517.6
2019-Jun-12 10:10N 53°13' W 130°55'317.4
2019-Jun-12 10:00N 53°16' W 130°57'1017.8
2019-Jun-12 09:25N 53°26' W 131°02'818.1
2019-Jun-12 09:00N 53°33' W 131°02'918.0
2019-Jun-12 08:31N 53°42' W 131°02'917.4
2019-Jun-12 08:01N 53°51' W 131°02'817.0
2019-Jun-12 07:31N 53°59' W 131°02'917.0
2019-Jun-12 07:00N 54°08' W 131°02'817.0
2019-Jun-12 06:31N 54°16' W 131°05'916.7
2019-Jun-12 06:00N 54°24' W 131°10'816.7
2019-Jun-12 05:30N 54°31' W 131°19'281 6.3
2019-Jun-10 08:34N 58°17' W 136°19'219.1
2019-Jun-10 08:27N 58°18' W 136°15'818.4
2019-Jun-10 08:00N 58°20' W 135°60'918.3
2019-Jun-10 07:30N 58°18' W 135°43'11 0.5
2019-Jun-09 07:30N 58°13' W 135°23'917.7
2019-Jun-09 07:00N 58°16' W 135°39'817.1
2019-Jun-09 06:31N 58°19' W 135°54'815.5
2019-Jun-09 06:00N 58°19' W 136°08'  
Track history (hours):
 
Tides and Currents Weather Stations Pressure Air Temp Water Temp Dewpoint Dewpoint Depression Visibility Wind Speed Wind Dir Waves Ship Positions

Crystal Symphony

Operator: Crystal Cruises

Last reported at 2019-Jun-16 02:17 UTC. Time now 2019-Jun-16 15:32 UTC.
Position N 43°05' W 125°02'.

Length 238 m; draft 8 m.

Type: Ship. MMSI: 309168000.

Date/timePositionNaut miles runAvg speedWind from/ knotsBaromVisibWave heightAir tempDewpointWater temp
2019-Jun-16 02:17N 43°05' W 125°02'1219.9
2019-Jun-16 01:41N 43°17' W 125°01'319.8
2019-Jun-16 01:30N 43°20' W 125°01'1220.2
2019-Jun-16 00:55N 43°32' W 125°01'819.9
2019-Jun-16 00:30N 43°40' W 125°01'1020.0
2019-Jun-16 00:00N 43°50' W 125°00'1019.5
2019-Jun-15 23:30N 43°60' W 125°00'1719.4
2019-Jun-15 22:37N 44°17' W 125°01'219.7
2019-Jun-15 22:30N 44°19' W 125°01'1019.8
2019-Jun-15 22:01N 44°29' W 125°02'1020.1
2019-Jun-15 21:30N 44°39' W 125°03'1219.4
2019-Jun-15 20:54N 44°51' W 125°04'819.4
2019-Jun-15 20:30N 44°59' W 125°05'1019.4
2019-Jun-15 20:00N 45°08' W 125°05'1019.3
2019-Jun-15 19:30N 45°18' W 125°06'1619.3
2019-Jun-15 18:42N 45°34' W 125°08'419.5
2019-Jun-15 18:30N 45°37' W 125°08'1631.0
2019-Jun-15 18:00N 45°53' W 125°09'912.1
2019-Jun-15 17:17N 46°01' W 125°10'517.3
2019-Jun-15 17:00N 46°06' W 125°11'1019.3
2019-Jun-15 16:30N 46°16' W 125°12'1719.5
2019-Jun-15 15:38N 46°33' W 125°13'219.3
2019-Jun-15 15:30N 46°35' W 125°13'1019.3
2019-Jun-15 15:00N 46°45' W 125°13'919.2
2019-Jun-15 14:30N 46°55' W 125°14'1019.7
2019-Jun-15 13:59N 47°05' W 125°15'1419.7
2019-Jun-15 13:15N 47°19' W 125°15'819.4
2019-Jun-15 12:52N 47°27' W 125°18'1219.8
2019-Jun-15 12:14N 47°39' W 125°19'819.8
2019-Jun-15 11:50N 47°47' W 125°20'619.3
2019-Jun-15 11:30N 47°53' W 125°20'1319.6
2019-Jun-15 10:49N 48°06' W 125°15'719.8
2019-Jun-15 10:29N 48°13' W 125°12'919.4
2019-Jun-15 10:00N 48°22' W 125°09'1018.5
2019-Jun-15 09:29N 48°30' W 125°01'919.0
2019-Jun-15 09:00N 48°31' W 124°48'1019.6
2019-Jun-15 08:30N 48°28' W 124°34'1019.2
2019-Jun-15 08:00N 48°24' W 124°20'1018.8
2019-Jun-15 07:30N 48°21' W 124°07'2517.7
2019-Jun-15 06:04N 48°18' W 123°29'219.0
2019-Jun-15 05:57N 48°20' W 123°27'511.3
2019-Jun-15 05:31N 48°23' W 123°22'4 8.7
2019-Jun-15 05:01N 48°24' W 123°15'918.1
2019-Jun-15 04:30N 48°33' W 123°13'919.0
2019-Jun-15 04:01N 48°42' W 123°15'1018.4
2019-Jun-15 03:26N 48°47' W 123°01'715.2
2019-Jun-15 03:01N 48°53' W 123°06'1020.1
2019-Jun-15 02:31N 48°59' W 123°18'1019.2
2019-Jun-15 02:01N 49°08' W 123°23'1019.1
2019-Jun-15 01:30N 49°17' W 123°19'714.9
2019-Jun-15 01:00N 49°19' W 123°08'2 3.4
2019-Jun-15 00:28N 49°17' W 123°07'0 0.0
2019-Jun-15 00:00N 49°17' W 123°07'0 0.0
2019-Jun-14 23:30N 49°17' W 123°07'0 0.0
2019-Jun-14 23:00N 49°17' W 123°07'0 0.0
2019-Jun-14 22:30N 49°17' W 123°07'0 0.0
2019-Jun-14 22:01N 49°17' W 123°07'0 0.0
2019-Jun-14 21:30N 49°17' W 123°07'0 0.0
2019-Jun-14 21:00N 49°17' W 123°07'0 0.0
2019-Jun-14 20:29N 49°17' W 123°07'0 0.0
2019-Jun-14 20:01N 49°17' W 123°07'0 0.0
2019-Jun-14 19:30N 49°17' W 123°07'0 0.0
2019-Jun-14 19:00N 49°17' W 123°07'0 0.0
2019-Jun-14 18:31N 49°17' W 123°07'0 0.0
2019-Jun-14 18:00N 49°17' W 123°07'0 0.0
2019-Jun-14 17:31N 49°17' W 123°07'0 0.0
2019-Jun-14 16:58N 49°17' W 123°07'0 0.0
2019-Jun-14 16:31N 49°17' W 123°07'0 0.0
2019-Jun-14 15:59N 49°17' W 123°07'0 0.0
2019-Jun-14 15:30N 49°17' W 123°07'0 0.0
2019-Jun-14 15:00N 49°17' W 123°07'0 0.0
2019-Jun-14 14:29N 49°17' W 123°07'0 0.3
2019-Jun-14 14:00N 49°18' W 123°07'1 2.9
2019-Jun-14 13:30N 49°19' W 123°08'5 9.4
2019-Jun-14 13:01N 49°18' W 123°15'5 9.1
2019-Jun-14 12:30N 49°15' W 123°19'612.2
2019-Jun-14 12:00N 49°09' W 123°21'510.5
2019-Jun-14 11:30N 49°03' W 123°19'612.1
2019-Jun-14 11:01N 48°59' W 123°13'612.3
2019-Jun-14 10:31N 48°55' W 123°06'612.2
2019-Jun-14 10:01N 48°50' W 123°01'610.7
2019-Jun-14 09:29N 48°45' W 123°04'714.0
2019-Jun-14 09:00N 48°42' W 123°14'713.7
2019-Jun-14 08:30N 48°35' W 123°13'715.1
2019-Jun-14 08:00N 48°28' W 123°10'612.3
2019-Jun-14 07:30N 48°23' W 123°15'611.2
2019-Jun-14 07:00N 48°24' W 123°24'1 2.4
2019-Jun-14 06:29N 48°25' W 123°23'0 0.0
2019-Jun-14 05:59N 48°25' W 123°23'0 0.0
2019-Jun-14 05:29N 48°25' W 123°23'0 0.0
2019-Jun-14 04:58N 48°25' W 123°23'0 0.0
2019-Jun-14 04:28N 48°25' W 123°23'0 0.0
2019-Jun-14 03:58N 48°25' W 123°23'0 0.0
2019-Jun-14 03:28N 48°25' W 123°23'0 0.0
2019-Jun-14 02:58N 48°25' W 123°23'0 0.0
2019-Jun-14 02:30N 48°25' W 123°23'0 0.0
2019-Jun-14 02:00N 48°25' W 123°23'0 0.0
2019-Jun-14 01:30N 48°25' W 123°23'0 0.0
2019-Jun-14 01:00N 48°25' W 123°23'0 0.0
2019-Jun-14 00:29N 48°25' W 123°23'0 0.0
2019-Jun-13 23:59N 48°25' W 123°23'0 0.0
2019-Jun-13 23:29N 48°25' W 123°23'0 0.0
2019-Jun-13 22:59N 48°25' W 123°23'0 0.0
2019-Jun-13 22:29N 48°25' W 123°23'0 0.0
2019-Jun-13 21:58N 48°25' W 123°23'0 0.0
2019-Jun-13 21:28N 48°25' W 123°23'0 0.0
2019-Jun-13 20:58N 48°25' W 123°23'0 0.0
2019-Jun-13 20:28N 48°25' W 123°23'0 0.0
2019-Jun-13 19:58N 48°25' W 123°23'0 0.0
2019-Jun-13 19:30N 48°25' W 123°23'0 0.0
2019-Jun-13 19:00N 48°25' W 123°23'0 0.0
2019-Jun-13 18:30N 48°25' W 123°23'0 0.0
2019-Jun-13 18:00N 48°25' W 123°23'0 0.0
2019-Jun-13 17:29N 48°25' W 123°23'0 0.0
2019-Jun-13 16:59N 48°25' W 123°23'0 0.0
2019-Jun-13 16:29N 48°25' W 123°23'0 0.0
2019-Jun-13 15:59N 48°25' W 123°23'0 0.0
2019-Jun-13 15:29N 48°25' W 123°23'0 0.0
2019-Jun-13 14:58N 48°25' W 123°23'0 0.4
2019-Jun-13 14:30N 48°25' W 123°24'3 5.0
2019-Jun-13 14:00N 48°22' W 123°23'611.5
2019-Jun-13 13:30N 48°17' W 123°26'611.2
2019-Jun-13 12:59N 48°14' W 123°33'1011.5
2019-Jun-13 12:06N 48°14' W 123°48'211.5
2019-Jun-13 11:56N 48°14' W 123°51'511.3
2019-Jun-13 11:28N 48°15' W 123°59'611.8
2019-Jun-13 11:00N 48°17' W 124°06'611.6
2019-Jun-13 10:30N 48°19' W 124°14'611.8
2019-Jun-13 10:00N 48°22' W 124°22'714.4
2019-Jun-13 09:30N 48°24' W 124°32'815.9
2019-Jun-13 09:00N 48°28' W 124°43'815.3
2019-Jun-13 08:30N 48°28' W 124°55'816.1
2019-Jun-13 08:00N 48°28' W 125°07'917.1
2019-Jun-13 07:30N 48°32' W 125°19'917.2
2019-Jun-13 07:00N 48°35' W 125°31'917.4
2019-Jun-13 06:30N 48°38' W 125°43'816.9
2019-Jun-13 06:01N 48°44' W 125°53'917.1
2019-Jun-13 05:30N 48°48' W 126°04'917.3
2019-Jun-13 05:01N 48°53' W 126°14'917.5
2019-Jun-13 04:29N 48°59' W 126°25'1417.3
2019-Jun-13 03:39N 49°08' W 126°42'317.7
2019-Jun-13 03:29N 49°10' W 126°46'917.1
2019-Jun-13 02:56N 49°17' W 126°55'6117.5
2019-Jun-12 23:28N 49°58' W 128°04'1217.7
2019-Jun-12 22:46N 50°06' W 128°19'417.3
2019-Jun-12 22:31N 50°09' W 128°24'917.0
2019-Jun-12 22:00N 50°14' W 128°34'917.3
2019-Jun-12 21:30N 50°20' W 128°45'917.3
2019-Jun-12 21:00N 50°26' W 128°55'917.5
2019-Jun-12 20:31N 50°31' W 129°06'917.5
2019-Jun-12 20:00N 50°37' W 129°16'917.5
2019-Jun-12 19:30N 50°42' W 129°27'917.3
2019-Jun-12 19:01N 50°50' W 129°32'917.4
2019-Jun-12 18:30N 50°59' W 129°37'917.3
2019-Jun-12 18:00N 51°07' W 129°41'917.2
2019-Jun-12 17:30N 51°15' W 129°46'917.3
2019-Jun-12 17:00N 51°23' W 129°50'917.4
2019-Jun-12 16:30N 51°31' W 129°55'917.2
2019-Jun-12 16:01N 51°39' W 129°60'816.8
2019-Jun-12 15:31N 51°47' W 130°04'917.0
2019-Jun-12 15:00N 51°55' W 130°09'816.9
2019-Jun-12 14:30N 52°03' W 130°14'916.5
2019-Jun-12 13:59N 52°11' W 130°18'1116.8
2019-Jun-12 13:20N 52°22' W 130°24'917.1
2019-Jun-12 12:49N 52°30' W 130°29'516.9
2019-Jun-12 12:30N 52°35' W 130°32'1317.3
2019-Jun-12 11:47N 52°47' W 130°39'517.5
2019-Jun-12 11:28N 52°52' W 130°42'817.3
2019-Jun-12 11:00N 52°59' W 130°47'1517.6
2019-Jun-12 10:10N 53°13' W 130°55'317.4
2019-Jun-12 10:00N 53°16' W 130°57'1017.8
2019-Jun-12 09:25N 53°26' W 131°02'818.1
2019-Jun-12 09:00N 53°33' W 131°02'918.0
2019-Jun-12 08:31N 53°42' W 131°02'917.4
2019-Jun-12 08:01N 53°51' W 131°02'817.0
2019-Jun-12 07:31N 53°59' W 131°02'917.0
2019-Jun-12 07:00N 54°08' W 131°02'817.0
2019-Jun-12 06:31N 54°16' W 131°05'916.7
2019-Jun-12 06:00N 54°24' W 131°10'816.7
2019-Jun-12 05:30N 54°31' W 131°19'281 6.3
2019-Jun-10 08:34N 58°17' W 136°19'219.1
2019-Jun-10 08:27N 58°18' W 136°15'818.4
2019-Jun-10 08:00N 58°20' W 135°60'918.3
2019-Jun-10 07:30N 58°18' W 135°43'11 0.5
2019-Jun-09 07:30N 58°13' W 135°23'917.7
2019-Jun-09 07:00N 58°16' W 135°39'817.1
2019-Jun-09 06:31N 58°19' W 135°54'815.5
2019-Jun-09 06:00N 58°19' W 136°08'  

Dump ship's entire track history